createdAt,value
2023-11-08T00:01:32.814Z,30.27
2023-11-08T00:04:02.971Z,30.24
2023-11-08T00:06:35.416Z,30.27
2023-11-08T00:09:07.182Z,30.30
2023-11-08T00:11:37.051Z,30.28
2023-11-08T00:14:07.936Z,30.31
2023-11-08T00:16:39.043Z,30.31
2023-11-08T00:19:12.178Z,30.34
2023-11-08T00:21:42.511Z,30.37
2023-11-08T00:24:12.298Z,30.37
2023-11-08T00:26:42.755Z,30.35
2023-11-08T00:29:13.746Z,30.41
2023-11-08T00:31:44.636Z,30.41
2023-11-08T00:34:17.774Z,30.40
2023-11-08T00:36:48.429Z,30.40
2023-11-08T00:39:20.426Z,30.44
2023-11-08T00:41:51.640Z,30.46
2023-11-08T00:44:23.416Z,30.47
2023-11-08T00:46:56.117Z,30.45
2023-11-08T00:49:26.139Z,30.40
2023-11-08T00:52:02.275Z,30.37
2023-11-08T00:54:35.883Z,30.35
2023-11-08T00:57:06.280Z,30.41
2023-11-08T00:59:36.865Z,30.47
2023-11-08T01:02:09.870Z,30.47
2023-11-08T01:04:39.920Z,30.53
2023-11-08T01:07:10.028Z,30.54
2023-11-08T01:09:40.719Z,30.59
2023-11-08T01:12:10.805Z,30.57
2023-11-08T01:14:40.703Z,30.57
2023-11-08T01:17:12.258Z,30.61
2023-11-08T01:19:42.119Z,30.72
2023-11-08T01:22:13.745Z,30.77
2023-11-08T01:24:43.738Z,30.83
2023-11-08T01:27:13.488Z,30.83
2023-11-08T01:29:43.733Z,30.87
2023-11-08T01:32:13.436Z,30.91
2023-11-08T01:34:43.322Z,30.96
2023-11-08T01:37:13.070Z,30.93
2023-11-08T01:39:43.219Z,30.97
2023-11-08T01:42:13.083Z,30.98
2023-11-08T01:44:43.106Z,31.01
2023-11-08T01:47:16.844Z,31.06
2023-11-08T01:49:47.349Z,31.00
2023-11-08T01:52:17.341Z,31.03
2023-11-08T01:54:51.122Z,31.05
2023-11-08T01:57:22.912Z,31.08
2023-11-08T01:59:53.875Z,31.15
2023-11-08T02:02:24.174Z,31.20
2023-11-08T02:04:57.295Z,31.28
2023-11-08T02:07:27.194Z,31.32
2023-11-08T02:09:57.160Z,31.47
2023-11-08T02:12:27.142Z,31.52
2023-11-08T02:15:13.580Z,31.52
2023-11-08T02:17:48.445Z,31.58
2023-11-08T02:20:19.851Z,31.59
2023-11-08T02:22:49.992Z,31.72
2023-11-08T02:25:20.321Z,31.72
2023-11-08T02:27:50.596Z,31.66
2023-11-08T02:30:20.954Z,31.57
2023-11-08T02:32:51.531Z,31.57
2023-11-08T02:35:22.513Z,31.50
2023-11-08T02:37:52.421Z,31.42
2023-11-08T02:40:22.218Z,31.37
2023-11-08T02:42:54.841Z,31.40
2023-11-08T02:45:24.734Z,31.41
2023-11-08T02:47:54.916Z,31.30
2023-11-08T02:50:25.828Z,31.33
2023-11-08T02:53:22.837Z,31.43
2023-11-08T02:55:52.761Z,31.57
2023-11-08T02:58:22.479Z,31.61
2023-11-08T03:00:56.674Z,31.55
2023-11-08T03:03:27.188Z,31.38
2023-11-08T03:05:57.232Z,31.32
2023-11-08T03:08:27.153Z,31.31
2023-11-08T03:10:57.031Z,31.26
2023-11-08T03:13:28.065Z,31.19
2023-11-08T03:15:59.170Z,31.21
2023-11-08T03:18:29.153Z,31.32
2023-11-08T03:20:58.996Z,31.29
2023-11-08T03:23:33.127Z,31.28
2023-11-08T03:26:03.153Z,31.36
2023-11-08T03:28:33.163Z,31.45
2023-11-08T03:31:03.336Z,31.48
2023-11-08T03:33:33.619Z,31.53
2023-11-08T03:36:05.580Z,31.55
2023-11-08T03:38:35.898Z,31.59
2023-11-08T03:41:06.089Z,31.61
2023-11-08T03:43:36.151Z,31.64
2023-11-08T03:46:06.295Z,31.65
2023-11-08T03:48:36.843Z,31.61
2023-11-08T03:51:07.030Z,31.69
2023-11-08T03:53:37.456Z,31.72
2023-11-08T03:56:07.654Z,31.77
2023-11-08T03:58:40.803Z,31.70
2023-11-08T04:01:11.336Z,31.73
2023-11-08T04:03:41.621Z,31.72
2023-11-08T04:06:12.645Z,31.71
2023-11-08T04:08:42.605Z,31.72
2023-11-08T04:11:12.968Z,31.73
2023-11-08T04:13:43.341Z,31.77
2023-11-08T04:16:16.467Z,31.86
2023-11-08T04:18:48.722Z,31.83
2023-11-08T04:21:19.108Z,31.87
2023-11-08T04:23:51.298Z,31.91
2023-11-08T04:26:22.711Z,31.98
2023-11-08T04:28:53.966Z,32.01
2023-11-08T04:31:24.481Z,32.00
2023-11-08T04:33:55.435Z,32.06
2023-11-08T04:36:28.361Z,32.07
2023-11-08T04:39:00.823Z,31.99
2023-11-08T04:41:30.804Z,32.00
2023-11-08T04:44:00.671Z,32.04
2023-11-08T04:46:30.983Z,32.00
2023-11-08T04:49:01.288Z,31.94
2023-11-08T04:51:32.243Z,32.01
2023-11-08T04:54:02.268Z,32.05
2023-11-08T04:56:33.044Z,32.06
2023-11-08T04:59:02.975Z,32.13
2023-11-08T05:01:33.369Z,32.10
2023-11-08T05:04:03.733Z,32.14
2023-11-08T05:06:33.735Z,32.20
2023-11-08T05:09:05.911Z,32.23
2023-11-08T05:11:36.181Z,32.28
2023-11-08T05:14:06.817Z,32.30
2023-11-08T05:16:37.468Z,32.21
2023-11-08T05:19:09.009Z,32.35
2023-11-08T05:21:39.694Z,32.28
2023-11-08T05:24:10.043Z,32.28
2023-11-08T05:26:39.945Z,32.22
2023-11-08T05:29:10.004Z,32.24
2023-11-08T05:31:40.416Z,32.30
2023-11-08T05:34:10.420Z,32.36
2023-11-08T05:36:40.429Z,32.34
2023-11-08T05:39:10.819Z,32.36
2023-11-08T05:41:40.565Z,32.36
2023-11-08T05:44:10.524Z,32.30
2023-11-08T05:46:40.558Z,32.27
2023-11-08T05:49:11.119Z,32.29
2023-11-08T05:51:41.850Z,32.28
2023-11-08T05:54:11.873Z,32.24
2023-11-08T05:56:43.854Z,32.23
2023-11-08T05:59:13.758Z,32.17
2023-11-08T06:01:46.560Z,32.14
2023-11-08T06:04:18.184Z,32.12
2023-11-08T06:06:50.505Z,32.05
2023-11-08T06:09:20.980Z,32.14
2023-11-08T06:11:52.154Z,32.03
2023-11-08T06:14:22.797Z,32.04
2023-11-08T06:16:54.116Z,32.05
2023-11-08T06:19:24.523Z,32.05
2023-11-08T06:21:55.289Z,31.98
2023-11-08T06:24:25.542Z,32.03
2023-11-08T06:26:55.564Z,32.04
2023-11-08T06:29:25.689Z,31.96
2023-11-08T06:31:55.718Z,31.98
2023-11-08T06:34:26.742Z,31.89
2023-11-08T06:36:56.658Z,31.87
2023-11-08T06:39:26.812Z,31.91
2023-11-08T06:41:57.901Z,32.01
2023-11-08T06:44:27.898Z,31.89
2023-11-08T06:46:58.740Z,31.91
2023-11-08T06:49:28.767Z,31.95
2023-11-08T06:51:59.416Z,31.87
2023-11-08T06:54:29.709Z,31.85
2023-11-08T06:57:00.889Z,31.93
2023-11-08T06:59:30.791Z,31.85
2023-11-08T07:02:00.408Z,31.96
2023-11-08T07:04:30.655Z,31.97
2023-11-08T07:07:03.832Z,31.85
2023-11-08T07:09:34.834Z,31.98
2023-11-08T07:12:05.779Z,31.94
2023-11-08T07:14:35.694Z,31.98
2023-11-08T07:17:07.480Z,31.91
2023-11-08T07:19:37.443Z,31.98
2023-11-08T07:22:07.547Z,31.90
2023-11-08T07:24:38.615Z,31.95
2023-11-08T07:27:10.697Z,31.96
2023-11-08T07:29:40.661Z,31.93
2023-11-08T07:32:14.874Z,31.91
2023-11-08T07:34:45.751Z,31.88
2023-11-08T07:37:15.900Z,31.98
2023-11-08T07:39:45.817Z,32.00
2023-11-08T07:42:15.810Z,31.99
2023-11-08T07:44:45.742Z,31.93
2023-11-08T07:47:16.262Z,31.91
2023-11-08T07:49:46.361Z,31.91
2023-11-08T07:52:16.185Z,31.90
2023-11-08T07:54:48.540Z,31.89
2023-11-08T07:57:19.962Z,31.93
2023-11-08T07:59:51.300Z,31.98
2023-11-08T08:02:22.400Z,32.01
2023-11-08T08:04:52.515Z,31.92
2023-11-08T08:07:22.500Z,31.91
2023-11-08T08:09:53.557Z,31.95
2023-11-08T08:12:28.744Z,31.92
2023-11-08T08:15:03.543Z,31.94
2023-11-08T08:17:36.977Z,31.88
2023-11-08T08:20:14.561Z,31.98
2023-11-08T08:22:46.779Z,31.96
2023-11-08T08:25:18.732Z,31.92
2023-11-08T08:27:49.611Z,31.92
2023-11-08T08:30:20.589Z,31.96
2023-11-08T08:32:51.927Z,31.98
2023-11-08T08:35:22.722Z,31.94
2023-11-08T08:37:52.774Z,31.95
2023-11-08T08:40:22.680Z,31.93
2023-11-08T08:42:52.616Z,31.85
2023-11-08T08:45:22.430Z,31.83
2023-11-08T08:47:54.780Z,31.84
2023-11-08T08:50:26.735Z,31.84
2023-11-08T08:52:56.701Z,31.84
2023-11-08T08:55:27.030Z,31.76
2023-11-08T08:57:59.637Z,31.74
2023-11-08T09:00:30.856Z,31.69
2023-11-08T09:03:01.437Z,31.63
2023-11-08T09:05:32.138Z,31.65
2023-11-08T09:08:05.428Z,31.65
2023-11-08T09:10:37.204Z,31.63
2023-11-08T09:13:07.545Z,31.55
2023-11-08T09:15:38.705Z,31.52
2023-11-08T09:18:12.196Z,31.48
2023-11-08T09:20:42.127Z,31.49
2023-11-08T09:23:12.495Z,31.33
2023-11-08T09:25:42.442Z,31.46
2023-11-08T09:28:12.543Z,31.46
2023-11-08T09:30:42.529Z,31.31
2023-11-08T09:33:12.546Z,31.31
2023-11-08T09:35:44.474Z,31.37
2023-11-08T09:38:14.567Z,31.33
2023-11-08T09:40:47.954Z,31.28
2023-11-08T09:43:22.777Z,31.38
2023-11-08T09:45:54.828Z,31.35
2023-11-08T09:48:24.834Z,31.32
2023-11-08T09:50:55.052Z,31.25
2023-11-08T09:53:25.197Z,31.32
2023-11-08T09:56:01.733Z,31.25
2023-11-08T09:58:33.060Z,31.27
2023-11-08T10:01:03.911Z,31.17
2023-11-08T10:03:40.365Z,31.24
2023-11-08T10:06:11.428Z,31.21
2023-11-08T10:08:41.959Z,31.14
2023-11-08T10:11:19.924Z,31.18
2023-11-08T10:13:55.291Z,31.13
2023-11-08T10:16:29.460Z,31.13
2023-11-08T10:19:36.670Z,31.21
2023-11-08T10:21:53.527Z,31.15
2023-11-08T10:24:25.688Z,31.17
2023-11-08T10:26:56.568Z,31.26
2023-11-08T10:29:28.048Z,31.14
2023-11-08T10:31:58.127Z,31.21
2023-11-08T10:34:29.301Z,31.26
2023-11-08T10:37:02.523Z,31.20
2023-11-08T10:39:33.440Z,31.14
2023-11-08T10:42:04.519Z,31.04
2023-11-08T10:44:35.337Z,31.06
2023-11-08T10:47:05.639Z,31.03
2023-11-08T10:49:36.621Z,31.11
2023-11-08T10:52:11.655Z,31.01
2023-11-08T10:54:42.256Z,31.11
2023-11-08T10:57:15.178Z,31.15
2023-11-08T10:59:52.284Z,31.24
2023-11-08T11:02:39.788Z,31.27
2023-11-08T11:05:14.552Z,31.23
2023-11-08T11:07:45.572Z,31.27
2023-11-08T11:10:17.258Z,31.19
2023-11-08T11:13:13.856Z,31.16
2023-11-08T11:15:51.555Z,31.16
2023-11-08T11:18:24.707Z,31.15
2023-11-08T11:20:58.706Z,31.14
2023-11-08T11:23:43.655Z,31.21
2023-11-08T11:26:13.820Z,31.17
2023-11-08T11:28:57.752Z,31.14
2023-11-08T11:31:43.143Z,31.02
2023-11-08T11:34:28.926Z,31.07
2023-11-08T11:37:08.470Z,31.20
2023-11-08T11:39:51.044Z,31.20
2023-11-08T11:42:26.170Z,31.22
2023-11-08T11:44:58.997Z,31.12
2023-11-08T11:47:32.284Z,31.11
2023-11-08T11:50:06.040Z,31.15
2023-11-08T11:52:37.724Z,31.10
2023-11-08T11:55:10.851Z,31.13
2023-11-08T11:57:41.630Z,31.04
2023-11-08T12:00:16.014Z,30.95
2023-11-08T12:02:51.743Z,30.96
2023-11-08T12:05:25.628Z,30.89
2023-11-08T12:07:56.743Z,30.89
2023-11-08T12:10:28.681Z,31.00
2023-11-08T12:13:01.629Z,30.92
2023-11-08T12:15:34.229Z,30.93
2023-11-08T12:18:07.495Z,30.89
2023-11-08T12:20:44.417Z,30.91
2023-11-08T12:23:14.614Z,30.84
2023-11-08T12:25:45.197Z,30.89
2023-11-08T12:28:15.299Z,30.94
2023-11-08T12:30:47.997Z,30.87
2023-11-08T12:33:18.051Z,30.91
2023-11-08T12:35:48.099Z,30.96
2023-11-08T12:38:19.667Z,30.93
2023-11-08T12:41:07.051Z,30.88
2023-11-08T12:43:59.070Z,30.90
2023-11-08T12:46:40.096Z,30.97
2023-11-08T12:49:20.591Z,30.98
2023-11-08T12:51:50.706Z,30.94
2023-11-08T12:54:21.386Z,30.97
2023-11-08T12:56:54.782Z,30.99
2023-11-08T12:59:25.868Z,30.99
2023-11-08T13:02:07.984Z,30.94
2023-11-08T13:04:42.233Z,31.01
2023-11-08T13:07:15.086Z,30.98
2023-11-08T13:09:46.030Z,31.12
2023-11-08T13:12:16.249Z,31.14
2023-11-08T13:14:50.063Z,31.11
2023-11-08T13:17:23.367Z,31.12
2023-11-08T13:19:54.650Z,31.11
2023-11-08T13:22:29.783Z,31.10
2023-11-08T13:25:03.135Z,31.05
2023-11-08T13:27:33.967Z,31.00
2023-11-08T13:30:05.978Z,31.03
2023-11-08T13:32:36.865Z,31.06
2023-11-08T13:35:14.004Z,31.06
2023-11-08T13:37:44.833Z,31.04
2023-11-08T13:40:18.146Z,31.03
2023-11-08T13:42:48.090Z,30.98
2023-11-08T13:45:19.294Z,30.98
2023-11-08T13:47:49.831Z,30.94
2023-11-08T13:50:21.125Z,30.84
2023-11-08T13:52:54.204Z,30.87
2023-11-08T13:55:26.935Z,30.84
2023-11-08T13:57:59.964Z,30.89
2023-11-08T14:00:31.142Z,30.92
2023-11-08T14:03:01.381Z,30.91
2023-11-08T14:05:34.040Z,30.91
2023-11-08T14:08:04.601Z,30.90
2023-11-08T14:10:35.273Z,30.92
2023-11-08T14:13:06.146Z,30.91
2023-11-08T14:15:36.263Z,30.90
2023-11-08T14:18:12.261Z,30.90
2023-11-08T14:20:45.067Z,30.89
2023-11-08T14:23:17.374Z,30.87
2023-11-08T14:25:50.730Z,30.88
2023-11-08T14:28:20.989Z,30.85
2023-11-08T14:30:52.353Z,30.85
2023-11-08T14:33:22.689Z,30.77
2023-11-08T14:35:53.377Z,30.86
2023-11-08T14:38:23.811Z,30.79
2023-11-08T14:40:54.283Z,30.74
2023-11-08T14:43:28.307Z,30.74
2023-11-08T14:45:58.868Z,30.70
2023-11-08T14:48:29.179Z,30.68
2023-11-08T14:50:59.140Z,30.66
2023-11-08T14:53:29.493Z,30.68
2023-11-08T14:55:59.520Z,30.64
2023-11-08T14:58:29.992Z,30.62
2023-11-08T15:01:00.751Z,30.59
2023-11-08T15:03:31.278Z,30.58
2023-11-08T15:06:05.042Z,30.59
2023-11-08T15:09:50.732Z,30.57
2023-11-08T15:11:28.779Z,30.57
2023-11-08T15:14:03.345Z,30.54
2023-11-08T15:16:36.236Z,30.57
2023-11-08T15:19:15.719Z,30.57
2023-11-08T15:21:49.642Z,30.57
2023-11-08T15:24:19.615Z,30.56
2023-11-08T15:26:51.832Z,30.55
2023-11-08T15:29:23.184Z,30.54
2023-11-08T15:31:53.295Z,30.52
2023-11-08T15:34:26.332Z,30.49
2023-11-08T15:36:59.385Z,30.45
2023-11-08T15:39:29.520Z,30.50
2023-11-08T15:41:59.497Z,30.43
2023-11-08T15:44:29.389Z,30.46
2023-11-08T15:47:04.312Z,30.42
2023-11-08T15:49:35.143Z,30.42
2023-11-08T15:52:05.278Z,30.44
2023-11-08T15:54:38.053Z,30.41
2023-11-08T15:57:08.001Z,30.43
2023-11-08T15:59:38.205Z,30.41
2023-11-08T16:02:08.590Z,30.40
2023-11-08T16:04:39.564Z,30.38
2023-11-08T16:07:12.643Z,30.41
2023-11-08T16:09:47.643Z,30.37
2023-11-08T16:12:18.409Z,30.34
2023-11-08T16:14:48.990Z,30.37
2023-11-08T16:17:19.178Z,30.33
2023-11-08T16:19:52.201Z,30.35
2023-11-08T16:22:22.674Z,30.36
2023-11-08T16:25:08.690Z,30.37
2023-11-08T16:27:47.427Z,30.33
2023-11-08T16:30:17.986Z,30.35
2023-11-08T16:33:12.139Z,30.32
2023-11-08T16:35:42.215Z,30.33
2023-11-08T16:38:12.510Z,30.29
2023-11-08T16:40:42.670Z,30.29
2023-11-08T16:43:15.516Z,30.26
2023-11-08T16:45:45.387Z,30.28
2023-11-08T16:48:15.500Z,30.26
2023-11-08T16:50:51.404Z,30.27
2023-11-08T16:53:21.457Z,30.23
2023-11-08T16:55:51.364Z,30.23
2023-11-08T16:58:21.238Z,30.24
2023-11-08T17:00:51.198Z,30.24
2023-11-08T17:03:21.837Z,30.19
2023-11-08T17:05:52.740Z,30.20
2023-11-08T17:08:22.993Z,30.17
2023-11-08T17:10:53.299Z,29.98
2023-11-08T17:13:24.515Z,29.80
2023-11-08T17:16:03.329Z,29.71
2023-11-08T17:18:34.022Z,29.83
2023-11-08T17:21:09.046Z,29.87
2023-11-08T17:23:42.011Z,29.83
2023-11-08T17:26:17.469Z,29.86
2023-11-08T17:28:54.042Z,29.81
2023-11-08T17:31:31.520Z,29.75
2023-11-08T17:34:01.601Z,29.75
2023-11-08T17:36:32.026Z,29.69
2023-11-08T17:39:07.112Z,29.65
2023-11-08T17:41:37.633Z,29.60
2023-11-08T17:44:07.912Z,29.70
2023-11-08T17:46:41.304Z,29.75
2023-11-08T17:49:11.256Z,29.67
2023-11-08T17:51:41.586Z,29.61
2023-11-08T17:54:26.805Z,29.59
2023-11-08T17:56:57.262Z,29.60
2023-11-08T17:59:27.241Z,29.65
2023-11-08T18:01:59.678Z,29.62
2023-11-08T18:04:32.284Z,29.67
2023-11-08T18:07:02.501Z,29.67
2023-11-08T18:09:35.440Z,29.67
2023-11-08T18:12:09.069Z,29.70
2023-11-08T18:14:41.706Z,29.62
2023-11-08T18:17:14.819Z,29.60
2023-11-08T18:19:45.395Z,29.58
2023-11-08T18:22:15.888Z,29.55
2023-11-08T18:24:46.912Z,29.55
2023-11-08T18:27:16.905Z,29.54
2023-11-08T18:29:49.871Z,29.53
2023-11-08T18:32:20.016Z,29.53
2023-11-08T18:34:50.885Z,29.62
2023-11-08T18:37:21.232Z,29.52
2023-11-08T18:39:51.256Z,29.53
2023-11-08T18:42:21.778Z,29.55
2023-11-08T18:44:51.702Z,29.54
2023-11-08T18:47:21.364Z,29.52
2023-11-08T18:49:53.040Z,29.49
2023-11-08T18:52:22.922Z,29.45
2023-11-08T18:54:53.521Z,29.42
2023-11-08T18:57:24.025Z,29.44
2023-11-08T18:59:56.664Z,29.45
2023-11-08T19:02:26.642Z,29.48
2023-11-08T19:04:56.447Z,29.47
2023-11-08T19:07:26.486Z,29.48
2023-11-08T19:09:57.470Z,29.48
2023-11-08T19:12:28.203Z,29.45
2023-11-08T19:15:00.924Z,29.44
2023-11-08T19:17:31.604Z,29.52
2023-11-08T19:20:02.067Z,29.52
2023-11-08T19:22:32.546Z,29.52
2023-11-08T19:25:03.292Z,29.49
2023-11-08T19:27:35.179Z,29.51
2023-11-08T19:30:06.059Z,29.53
2023-11-08T19:32:37.088Z,29.53
2023-11-08T19:35:08.011Z,29.52
2023-11-08T19:37:39.217Z,29.50
2023-11-08T19:40:12.634Z,29.47
2023-11-08T19:42:42.941Z,29.41
2023-11-08T19:45:13.224Z,29.44
2023-11-08T19:47:43.274Z,29.45
2023-11-08T19:50:15.999Z,29.44
2023-11-08T19:52:48.338Z,29.51
2023-11-08T19:55:18.399Z,29.56
2023-11-08T19:57:48.734Z,29.44
2023-11-08T20:00:18.586Z,29.42
2023-11-08T20:02:48.993Z,29.41
2023-11-08T20:05:18.985Z,29.48
2023-11-08T20:07:51.243Z,29.42
2023-11-08T20:10:21.327Z,29.42
2023-11-08T20:12:51.424Z,29.49
2023-11-08T20:15:21.778Z,29.47
2023-11-08T20:17:51.895Z,29.48
2023-11-08T20:20:22.147Z,29.41
2023-11-08T20:22:54.020Z,29.45
2023-11-08T20:25:24.863Z,29.47
2023-11-08T20:27:55.566Z,29.44
2023-11-08T20:30:26.247Z,29.46
2023-11-08T20:32:56.253Z,29.48
2023-11-08T20:35:26.390Z,29.49
2023-11-08T20:37:58.962Z,29.49
2023-11-08T20:40:28.883Z,29.46
2023-11-08T20:43:01.434Z,29.46
2023-11-08T20:45:31.638Z,29.47
2023-11-08T20:48:01.422Z,29.47
2023-11-08T20:50:31.878Z,29.42
2023-11-08T20:53:02.122Z,29.42
2023-11-08T20:55:32.160Z,29.44
2023-11-08T20:58:03.627Z,29.43
2023-11-08T21:00:33.518Z,29.45
2023-11-08T21:03:05.040Z,29.42
2023-11-08T21:05:34.926Z,29.42
2023-11-08T21:08:04.826Z,29.39
2023-11-08T21:10:34.544Z,29.41
2023-11-08T21:13:04.453Z,29.39
2023-11-08T21:15:36.180Z,29.39
2023-11-08T21:18:06.677Z,29.42
2023-11-08T21:20:36.307Z,29.37
2023-11-08T21:23:06.523Z,29.37
2023-11-08T21:25:39.407Z,29.33
2023-11-08T21:28:09.373Z,29.40
2023-11-08T21:30:39.898Z,29.38
2023-11-08T21:33:10.221Z,29.39
2023-11-08T21:35:40.839Z,29.38
2023-11-08T21:38:10.758Z,29.36
2023-11-08T21:40:40.621Z,29.37
2023-11-08T21:43:10.841Z,29.37
2023-11-08T21:45:42.441Z,29.39
2023-11-08T21:48:12.358Z,29.41
2023-11-08T21:50:42.141Z,29.40
2023-11-08T21:53:12.665Z,29.40
2023-11-08T21:55:45.815Z,29.38
2023-11-08T21:58:16.360Z,29.32
2023-11-08T22:00:47.563Z,29.32
2023-11-08T22:03:18.134Z,29.25
2023-11-08T22:05:50.912Z,29.31
2023-11-08T22:08:21.180Z,29.29
2023-11-08T22:10:51.124Z,29.30
2023-11-08T22:13:21.217Z,29.21
2023-11-08T22:15:51.777Z,29.29
2023-11-08T22:18:21.595Z,29.24
2023-11-08T22:20:51.227Z,29.27
2023-11-08T22:23:24.919Z,29.32
2023-11-08T22:25:54.856Z,29.31
2023-11-08T22:28:24.921Z,29.25
2023-11-08T22:30:56.665Z,29.29
2023-11-08T22:33:26.689Z,29.33
2023-11-08T22:35:57.466Z,29.37
2023-11-08T22:38:27.847Z,29.32
2023-11-08T22:40:58.282Z,29.29
2023-11-08T22:43:28.268Z,29.30
2023-11-08T22:45:58.278Z,29.30
2023-11-08T22:48:30.255Z,29.37
2023-11-08T22:51:00.868Z,29.39
2023-11-08T22:53:32.558Z,29.35
2023-11-08T22:56:03.688Z,29.38
2023-11-08T22:58:35.112Z,29.37
2023-11-08T23:01:05.357Z,29.40
2023-11-08T23:03:35.368Z,29.31
2023-11-08T23:06:08.448Z,29.38
2023-11-08T23:08:38.825Z,29.40
2023-11-08T23:11:09.818Z,29.40
2023-11-08T23:13:40.128Z,29.43
2023-11-08T23:16:10.336Z,29.38
2023-11-08T23:18:41.327Z,29.45
2023-11-08T23:21:11.426Z,29.47
2023-11-08T23:23:42.586Z,29.52
2023-11-08T23:26:12.432Z,29.52
2023-11-08T23:28:42.578Z,29.47
2023-11-08T23:31:13.046Z,29.46
2023-11-08T23:33:43.121Z,29.60
2023-11-08T23:36:16.474Z,29.67
2023-11-08T23:38:46.812Z,29.58
2023-11-08T23:41:16.807Z,29.54
2023-11-08T23:43:49.306Z,29.61
2023-11-08T23:46:22.638Z,29.69
2023-11-08T23:48:53.163Z,29.65
2023-11-08T23:51:23.428Z,29.75
2023-11-08T23:53:53.448Z,29.74
2023-11-08T23:56:25.023Z,29.76
2023-11-08T23:58:59.150Z,29.90
